Time;durP1;ratioP1;P1;durP2;ratioP2;P2;SDS_P1;SDS_P2;PMS_P1;PMS_P2;Temp;Humidity;BMP_temperature;BMP_pressure;BME280_temperature;BME280_humidity;BME280_pressure;Samples;Min_cycle;Max_cycle;Signal;HPM_P1;HPM_P2
2021/06/17 00:01:55;;;;;;;10.88;6.72;;;;;;;;;;5112390;28;20061;-76
2021/06/17 00:04:23;;;;;;;8.02;6.28;;;;;;;;;;5112135;28;20059;-76
2021/06/17 00:06:52;;;;;;;7.78;6.80;;;;;;;;;;5112277;28;20085;-76
2021/06/17 00:09:20;;;;;;;13.45;9.15;;;;;;;;;;5112223;28;20027;-76
2021/06/17 00:11:46;;;;;;;13.73;8.57;;;;;;;;;;5112088;28;20019;-75
2021/06/17 00:14:12;;;;;;;7.03;5.70;;;;;;;;;;5112170;28;20012;-76
2021/06/17 00:16:38;;;;;;;10.00;6.18;;;;;;;;;;5111084;28;20055;-76
2021/06/17 00:19:04;;;;;;;9.15;7.60;;;;;;;;;;5111052;28;20030;-76
2021/06/17 00:21:30;;;;;;;8.50;7.05;;;;;;;;;;5112060;28;20015;-76
2021/06/17 00:23:56;;;;;;;11.80;7.10;;;;;;;;;;5112026;28;20024;-76
2021/06/17 00:26:22;;;;;;;14.98;10.90;;;;;;;;;;5111881;28;20600;-77
2021/06/17 00:28:48;;;;;;;10.82;8.27;;;;;;;;;;5111740;28;20176;-75
2021/06/17 00:31:17;;;;;;;14.73;7.18;;;;;;;;;;5112021;28;20035;-75
2021/06/17 00:33:43;;;;;;;8.40;6.60;;;;;;;;;;5111948;28;20127;-76
2021/06/17 00:36:09;;;;;;;12.13;8.40;;;;;;;;;;5111858;28;20081;-75
2021/06/17 00:38:35;;;;;;;12.95;8.63;;;;;;;;;;5111888;28;20554;-75
2021/06/17 00:41:01;;;;;;;7.72;6.50;;;;;;;;;;5112113;28;20096;-74
2021/06/17 00:43:27;;;;;;;12.05;7.35;;;;;;;;;;5110860;28;20035;-75
2021/06/17 00:45:55;;;;;;;12.00;8.20;;;;;;;;;;5111603;28;20055;-75
2021/06/17 00:48:22;;;;;;;8.82;7.05;;;;;;;;;;5111838;28;20024;-76
2021/06/17 00:50:49;;;;;;;11.00;7.45;;;;;;;;;;5111695;28;20021;-75
2021/06/17 00:53:17;;;;;;;11.98;7.25;;;;;;;;;;5111678;28;20088;-75
2021/06/17 00:55:46;;;;;;;10.18;6.75;;;;;;;;;;5111723;28;20035;-75
2021/06/17 00:58:13;;;;;;;8.48;6.72;;;;;;;;;;5111752;28;20023;-75
2021/06/17 01:00:39;;;;;;;17.77;12.27;;;;;;;;;;5111549;28;20434;-77
2021/06/17 01:03:06;;;;;;;12.95;8.45;;;;;;;;;;5110392;28;20035;-75
2021/06/17 01:05:32;;;;;;;10.63;8.95;;;;;;;;;;5105619;28;20112;-76
2021/06/17 01:08:01;;;;;;;12.10;8.15;;;;;;;;;;5111474;28;20371;-76
2021/06/17 01:10:45;;;;;;;9.15;7.40;;;;;;;;;;5110477;28;20031;-75
2021/06/17 01:13:29;;;;;;;8.75;6.68;;;;;;;;;;5111499;28;20479;-76
2021/06/17 01:16:02;;;;;;;10.02;7.85;;;;;;;;;;5111689;28;20059;-76
2021/06/17 01:18:29;;;;;;;8.38;6.93;;;;;;;;;;5111575;28;20071;-76
2021/06/17 01:20:56;;;;;;;8.88;6.63;;;;;;;;;;5105956;28;20023;-76
2021/06/17 01:23:32;;;;;;;8.52;7.53;;;;;;;;;;5110708;28;20036;-76
2021/06/17 01:26:07;;;;;;;12.95;6.70;;;;;;;;;;5111554;28;20028;-76
2021/06/17 01:28:36;;;;;;;10.60;7.15;;;;;;;;;;5110680;28;20479;-76
2021/06/17 01:31:12;;;;;;;9.40;7.60;;;;;;;;;;5106349;28;20102;-76
2021/06/17 01:33:40;;;;;;;9.70;7.53;;;;;;;;;;5115088;28;20019;-76
2021/06/17 01:36:08;;;;;;;11.18;8.05;;;;;;;;;;5115031;28;20349;-75
2021/06/17 01:38:36;;;;;;;14.10;8.70;;;;;;;;;;5114882;28;20515;-76
2021/06/17 01:41:05;;;;;;;10.05;7.68;;;;;;;;;;5114867;28;20028;-76
2021/06/17 01:43:32;;;;;;;9.10;6.13;;;;;;;;;;5115043;28;20042;-76
2021/06/17 01:45:58;;;;;;;9.38;6.93;;;;;;;;;;5114811;28;20082;-76
2021/06/17 01:48:27;;;;;;;8.70;7.28;;;;;;;;;;5113808;28;20020;-75
2021/06/17 01:50:54;;;;;;;9.13;7.22;;;;;;;;;;5114963;28;20513;-76
2021/06/17 01:53:23;;;;;;;8.52;6.93;;;;;;;;;;5114910;28;20099;-75
2021/06/17 01:55:51;;;;;;;9.13;6.82;;;;;;;;;;5113731;28;20087;-76
2021/06/17 01:58:19;;;;;;;11.30;6.97;;;;;;;;;;5114752;28;20035;-75
2021/06/17 02:00:46;;;;;;;7.85;7.05;;;;;;;;;;5114577;28;20462;-75
2021/06/17 02:03:13;;;;;;;11.20;7.47;;;;;;;;;;5114526;28;20074;-74
2021/06/17 02:05:39;;;;;;;9.90;6.72;;;;;;;;;;5114622;28;20038;-76
2021/06/17 02:08:09;;;;;;;7.18;6.20;;;;;;;;;;5114603;28;20039;-76
2021/06/17 02:10:36;;;;;;;6.85;5.82;;;;;;;;;;5114530;28;20020;-75
2021/06/17 02:13:04;;;;;;;10.48;6.80;;;;;;;;;;5114399;28;20020;-76
2021/06/17 02:15:31;;;;;;;7.68;6.88;;;;;;;;;;5113264;28;20027;-75
2021/06/17 02:17:59;;;;;;;8.05;6.25;;;;;;;;;;5114327;28;20144;-75
2021/06/17 02:20:27;;;;;;;8.07;7.07;;;;;;;;;;5113203;28;20034;-75
2021/06/17 02:22:56;;;;;;;7.93;7.13;;;;;;;;;;5113996;28;20051;-76
2021/06/17 02:25:23;;;;;;;8.35;5.95;;;;;;;;;;5114044;28;20107;-75
2021/06/17 02:27:53;;;;;;;8.85;6.72;;;;;;;;;;5114327;28;20299;-75
2021/06/17 02:30:19;;;;;;;6.93;6.23;;;;;;;;;;5114514;28;20016;-75
2021/06/17 02:32:48;;;;;;;11.93;8.05;;;;;;;;;;5113850;28;20051;-76
2021/06/17 02:35:19;;;;;;;10.45;6.18;;;;;;;;;;5113965;28;20032;-76
2021/06/17 02:37:45;;;;;;;7.97;6.80;;;;;;;;;;5113921;28;20030;-74
2021/06/17 02:40:11;;;;;;;8.45;6.78;;;;;;;;;;5111093;28;20451;-76
2021/06/17 02:42:39;;;;;;;11.00;8.07;;;;;;;;;;5107963;28;20039;-76
2021/06/17 02:45:06;;;;;;;9.23;6.72;;;;;;;;;;5113590;28;20044;-76
2021/06/17 02:47:33;;;;;;;6.85;5.90;;;;;;;;;;5112920;28;20648;-76
2021/06/17 02:49:59;;;;;;;7.35;5.88;;;;;;;;;;5113705;28;20028;-76
2021/06/17 02:52:25;;;;;;;11.18;7.90;;;;;;;;;;5113634;28;20126;-77
2021/06/17 02:54:51;;;;;;;6.63;5.93;;;;;;;;;;5113614;28;20019;-77
2021/06/17 02:57:24;;;;;;;6.78;5.53;;;;;;;;;;5113512;28;20130;-76
2021/06/17 03:00:02;;;;;;;10.80;7.13;;;;;;;;;;5112357;28;20027;-76
2021/06/17 03:02:35;;;;;;;10.02;6.07;;;;;;;;;;5113783;28;20069;-76
2021/06/17 03:05:18;;;;;;;10.65;6.47;;;;;;;;;;5112404;28;20055;-76
2021/06/17 03:07:50;;;;;;;12.45;8.75;;;;;;;;;;5112621;28;20302;-75
2021/06/17 03:10:19;;;;;;;10.23;6.97;;;;;;;;;;5106636;28;20102;-75
2021/06/17 03:12:45;;;;;;;14.00;9.43;;;;;;;;;;5113346;28;20061;-75
2021/06/17 03:15:12;;;;;;;10.45;6.28;;;;;;;;;;5112207;28;20519;-75
2021/06/17 03:17:41;;;;;;;9.20;7.80;;;;;;;;;;5113121;28;20118;-75
2021/06/17 03:20:10;;;;;;;7.07;5.68;;;;;;;;;;5112403;28;20030;-75
2021/06/17 03:22:36;;;;;;;7.03;5.55;;;;;;;;;;5113227;28;20027;-75
2021/06/17 03:25:07;;;;;;;9.07;7.13;;;;;;;;;;5113050;28;20035;-75
2021/06/17 03:27:33;;;;;;;6.95;6.22;;;;;;;;;;5112972;28;20038;-76
2021/06/17 03:30:01;;;;;;;6.82;5.95;;;;;;;;;;5113112;28;20028;-75
2021/06/17 03:32:30;;;;;;;8.95;6.65;;;;;;;;;;5112971;28;20020;-76
2021/06/17 03:34:58;;;;;;;8.93;6.22;;;;;;;;;;5112909;28;20046;-76
2021/06/17 03:37:26;;;;;;;8.65;6.55;;;;;;;;;;5111711;28;20409;-76
2021/06/17 03:39:53;;;;;;;11.50;7.57;;;;;;;;;;5112745;28;20028;-76
2021/06/17 03:42:20;;;;;;;6.75;6.03;;;;;;;;;;5112843;28;20414;-76
2021/06/17 03:44:48;;;;;;;18.65;12.38;;;;;;;;;;5111405;28;20056;-76
2021/06/17 03:47:14;;;;;;;8.30;6.13;;;;;;;;;;5112495;28;20015;-76
2021/06/17 03:49:43;;;;;;;8.75;6.93;;;;;;;;;;5112380;28;20051;-76
2021/06/17 03:52:10;;;;;;;8.73;6.65;;;;;;;;;;5111441;28;20023;-76
2021/06/17 03:54:36;;;;;;;10.40;8.50;;;;;;;;;;5111830;28;20106;-76
2021/06/17 03:57:04;;;;;;;14.77;10.77;;;;;;;;;;5112488;28;20381;-76
2021/06/17 03:59:32;;;;;;;8.48;6.05;;;;;;;;;;5112347;28;20471;-75
2021/06/17 04:01:58;;;;;;;10.05;6.30;;;;;;;;;;5112248;28;20034;-75
2021/06/17 04:04:25;;;;;;;8.07;6.20;;;;;;;;;;5112353;28;20095;-77
2021/06/17 04:06:53;;;;;;;9.48;6.93;;;;;;;;;;5112344;28;20085;-76
2021/06/17 04:09:25;;;;;;;8.00;6.80;;;;;;;;;;5112271;28;20055;-76
2021/06/17 04:11:52;;;;;;;8.63;6.30;;;;;;;;;;5107284;28;20482;-76
2021/06/17 04:14:18;;;;;;;6.78;5.78;;;;;;;;;;5110747;28;20027;-76
2021/06/17 04:16:45;;;;;;;9.75;6.35;;;;;;;;;;5112266;28;20024;-76
2021/06/17 04:19:11;;;;;;;31.83;22.98;;;;;;;;;;5112087;28;20028;-76
2021/06/17 04:21:39;;;;;;;9.60;5.82;;;;;;;;;;5111179;28;20019;-76
2021/06/17 04:24:06;;;;;;;9.30;7.03;;;;;;;;;;5110616;28;20051;-76
2021/06/17 04:26:32;;;;;;;9.00;6.70;;;;;;;;;;5111912;28;20034;-76
2021/06/17 04:28:58;;;;;;;8.73;6.82;;;;;;;;;;5111989;28;20019;-75
2021/06/17 04:31:25;;;;;;;18.42;11.63;;;;;;;;;;5111776;28;20054;-76
2021/06/17 04:33:51;;;;;;;8.50;6.75;;;;;;;;;;5111805;28;20080;-75
2021/06/17 04:36:18;;;;;;;9.13;5.95;;;;;;;;;;5108605;28;20494;-75
2021/06/17 04:38:48;;;;;;;7.95;6.25;;;;;;;;;;5108254;28;20034;-77
2021/06/17 04:41:15;;;;;;;7.00;5.80;;;;;;;;;;5111817;28;20046;-76
2021/06/17 04:43:41;;;;;;;10.15;6.00;;;;;;;;;;5111765;28;20031;-76
2021/06/17 04:46:07;;;;;;;7.68;5.70;;;;;;;;;;5111548;28;20044;-77
2021/06/17 04:48:36;;;;;;;8.05;5.97;;;;;;;;;;5111777;28;20020;-77
2021/06/17 04:51:05;;;;;;;8.73;6.30;;;;;;;;;;5111903;28;20028;-77
2021/06/17 04:53:31;;;;;;;6.90;5.30;;;;;;;;;;5111780;28;20020;-77
2021/06/17 04:55:57;;;;;;;11.73;7.63;;;;;;;;;;5111783;28;20024;-76
2021/06/17 04:58:25;;;;;;;7.45;6.10;;;;;;;;;;5111482;28;20125;-76
2021/06/17 05:00:54;;;;;;;11.68;6.30;;;;;;;;;;5111690;28;20023;-75
2021/06/17 05:03:20;;;;;;;9.35;5.65;;;;;;;;;;5111612;28;20039;-75
2021/06/17 05:05:50;;;;;;;8.93;6.25;;;;;;;;;;5111072;28;20032;-76
2021/06/17 05:13:23;;;;;;;16.55;10.93;;;;;;;;;;5115540;28;20051;-75
2021/06/17 05:15:50;;;;;;;12.30;8.45;;;;;;;;;;5115779;28;20024;-75
2021/06/17 05:18:20;;;;;;;9.80;5.60;;;;;;;;;;5114330;28;20111;-75
2021/06/17 05:20:46;;;;;;;15.25;9.93;;;;;;;;;;5115364;28;20024;-75
2021/06/17 05:23:14;;;;;;;8.23;6.03;;;;;;;;;;5114026;28;20084;-75
2021/06/17 05:25:42;;;;;;;7.50;5.93;;;;;;;;;;5115336;28;20065;-75
2021/06/17 05:28:09;;;;;;;9.48;6.07;;;;;;;;;;5114192;28;20019;-75
2021/06/17 05:30:35;;;;;;;11.38;7.78;;;;;;;;;;5115395;28;20329;-77
2021/06/17 05:33:03;;;;;;;13.38;8.65;;;;;;;;;;5113810;28;20020;-75
2021/06/17 05:35:32;;;;;;;8.50;6.28;;;;;;;;;;5114238;28;20038;-75
2021/06/17 05:37:58;;;;;;;8.27;5.72;;;;;;;;;;5115146;28;20100;-75
2021/06/17 05:40:24;;;;;;;11.68;6.47;;;;;;;;;;5115040;28;20403;-74
2021/06/17 05:42:50;;;;;;;20.00;10.32;;;;;;;;;;5114781;28;20027;-74
2021/06/17 05:45:16;;;;;;;10.70;5.43;;;;;;;;;;5114873;28;20177;-73
2021/06/17 05:47:42;;;;;;;8.40;5.72;;;;;;;;;;5115010;28;20059;-74
2021/06/17 05:50:08;;;;;;;11.45;6.57;;;;;;;;;;5115035;28;20054;-74
2021/06/17 05:52:34;;;;;;;8.45;5.68;;;;;;;;;;5114814;28;20024;-73
2021/06/17 05:55:00;;;;;;;8.70;5.82;;;;;;;;;;5114913;28;20411;-74
2021/06/17 05:57:26;;;;;;;15.25;9.80;;;;;;;;;;5114983;28;20032;-74
2021/06/17 05:59:52;;;;;;;14.82;5.03;;;;;;;;;;5114611;28;20038;-74
2021/06/17 06:02:23;;;;;;;14.63;5.80;;;;;;;;;;5114601;28;20384;-73
2021/06/17 06:04:49;;;;;;;;;;;;;;;;;;5113830;28;20058;-73
2021/06/17 06:07:15;;;;;;;13.90;5.70;;;;;;;;;;5114518;28;20328;-74
2021/06/17 06:09:41;;;;;;;9.27;5.80;;;;;;;;;;5114440;28;20019;-73
2021/06/17 06:12:10;;;;;;;9.00;5.95;;;;;;;;;;5114380;28;20094;-73
2021/06/17 06:14:36;;;;;;;16.63;8.85;;;;;;;;;;5114355;28;20031;-74
2021/06/17 06:17:04;;;;;;;5.47;4.90;;;;;;;;;;5113723;28;20042;-73
2021/06/17 06:19:31;;;;;;;10.23;5.35;;;;;;;;;;5107454;28;20026;-74
2021/06/17 06:21:57;;;;;;;8.80;5.45;;;;;;;;;;5114362;28;20031;-74
2021/06/17 06:24:24;;;;;;;6.65;5.82;;;;;;;;;;5111348;28;20119;-74
2021/06/17 06:26:52;;;;;;;11.65;5.40;;;;;;;;;;5114283;28;20047;-74
2021/06/17 06:29:18;;;;;;;8.75;5.13;;;;;;;;;;5114077;28;20020;-73
2021/06/17 06:31:44;;;;;;;8.15;4.95;;;;;;;;;;5114369;28;20038;-74
2021/06/17 06:34:10;;;;;;;19.15;6.47;;;;;;;;;;5114214;28;20024;-73
2021/06/17 06:36:36;;;;;;;11.07;6.03;;;;;;;;;;5114494;28;20027;-73
2021/06/17 06:39:02;;;;;;;6.03;5.43;;;;;;;;;;5113863;28;20024;-73
2021/06/17 06:41:30;;;;;;;11.88;5.68;;;;;;;;;;5114020;28;20073;-74
2021/06/17 06:43:56;;;;;;;12.40;8.43;;;;;;;;;;5111917;28;20023;-73
2021/06/17 06:46:27;;;;;;;16.42;8.10;;;;;;;;;;5112371;28;20425;-73
2021/06/17 06:48:53;;;;;;;10.07;5.97;;;;;;;;;;5113273;28;20020;-75
2021/06/17 06:51:26;;;;;;;9.07;5.20;;;;;;;;;;5114055;28;20028;-75
2021/06/17 06:53:57;;;;;;;10.95;6.18;;;;;;;;;;5113527;28;20090;-75
2021/06/17 06:56:23;;;;;;;13.18;8.77;;;;;;;;;;5113805;27;20035;-72
2021/06/17 06:58:49;;;;;;;19.20;13.05;;;;;;;;;;5113672;28;20039;-75
2021/06/17 07:01:15;;;;;;;8.18;5.30;;;;;;;;;;5113524;28;20066;-74
2021/06/17 07:03:42;;;;;;;7.65;5.15;;;;;;;;;;5113815;28;20069;-74
2021/06/17 07:06:08;;;;;;;7.28;5.35;;;;;;;;;;5113339;28;20024;-73
2021/06/17 07:08:34;;;;;;;6.25;4.75;;;;;;;;;;5113691;28;20046;-72
2021/06/17 07:11:00;;;;;;;13.95;7.32;;;;;;;;;;5108934;28;20020;-72
2021/06/17 07:13:28;;;;;;;18.10;8.40;;;;;;;;;;5110185;28;20042;-75
2021/06/17 07:15:55;;;;;;;10.23;6.63;;;;;;;;;;5111415;28;20019;-72
2021/06/17 07:18:21;;;;;;;30.02;18.85;;;;;;;;;;5109804;28;20059;-72
2021/06/17 07:20:50;;;;;;;8.07;4.70;;;;;;;;;;5108338;28;20027;-74
2021/06/17 07:23:17;;;;;;;6.20;5.22;;;;;;;;;;5111036;28;20112;-76
2021/06/17 07:25:44;;;;;;;19.33;15.43;;;;;;;;;;5108130;28;20611;-76
2021/06/17 07:28:10;;;;;;;5.63;4.15;;;;;;;;;;5112527;28;20451;-77
2021/06/17 07:30:36;;;;;;;22.83;5.55;;;;;;;;;;5111769;28;20012;-78
2021/06/17 07:33:02;;;;;;;8.07;4.70;;;;;;;;;;5109401;28;20127;-80
2021/06/17 07:35:29;;;;;;;7.25;5.07;;;;;;;;;;5112371;28;20047;-80
2021/06/17 07:37:57;;;;;;;8.18;6.53;;;;;;;;;;5112574;28;20035;-76
2021/06/17 07:40:31;;;;;;;11.70;5.13;;;;;;;;;;5112672;28;20472;-75
2021/06/17 07:42:57;;;;;;;6.30;4.90;;;;;;;;;;5108994;28;20046;-76
2021/06/17 07:45:29;;;;;;;7.18;6.28;;;;;;;;;;5109355;28;20100;-74
2021/06/17 07:47:55;;;;;;;5.35;4.78;;;;;;;;;;5111243;28;20699;-76
2021/06/17 07:50:21;;;;;;;5.40;4.00;;;;;;;;;;5112098;28;20031;-75
2021/06/17 07:52:47;;;;;;;6.32;4.07;;;;;;;;;;5112316;28;20046;-73
2021/06/17 07:55:13;;;;;;;7.28;4.88;;;;;;;;;;5109866;28;20028;-74
2021/06/17 07:57:39;;;;;;;7.30;6.10;;;;;;;;;;5109638;28;20429;-75
2021/06/17 08:00:06;;;;;;;8.55;5.78;;;;;;;;;;5110588;28;20020;-77
2021/06/17 08:02:33;;;;;;;5.45;4.00;;;;;;;;;;5111729;28;20031;-75
2021/06/17 08:05:01;;;;;;;7.32;4.75;;;;;;;;;;5111900;28;20084;-75
2021/06/17 08:07:27;;;;;;;8.52;4.43;;;;;;;;;;5111733;28;20110;-77
2021/06/17 08:09:56;;;;;;;8.65;4.82;;;;;;;;;;5111703;28;20020;-75
2021/06/17 08:12:27;;;;;;;5.05;4.20;;;;;;;;;;5110999;28;20046;-75
2021/06/17 08:14:54;;;;;;;7.05;4.28;;;;;;;;;;5111398;28;20048;-74
2021/06/17 08:17:20;;;;;;;5.28;3.92;;;;;;;;;;5112193;28;20027;-75
2021/06/17 08:19:46;;;;;;;4.32;3.83;;;;;;;;;;5111647;28;20411;-75
2021/06/17 08:22:12;;;;;;;4.28;3.78;;;;;;;;;;5111486;28;20111;-76
2021/06/17 08:24:43;;;;;;;6.78;4.05;;;;;;;;;;5112088;28;20041;-77
2021/06/17 08:27:08;;;;;;;5.45;3.90;;;;;;;;;;5112133;28;20023;-76
2021/06/17 08:29:34;;;;;;;8.60;5.45;;;;;;;;;;5109397;28;20520;-76
2021/06/17 08:38:36;;;;;;;7.80;5.70;;;;;;;;;;5110446;28;20051;-77
2021/06/17 08:41:04;;;;;;;5.65;3.90;;;;;;;;;;5110742;28;20047;-75
2021/06/17 08:46:39;;;;;;;4.95;3.72;;;;;;;;;;5111199;28;20043;-78
2021/06/17 08:49:07;;;;;;;6.45;4.32;;;;;;;;;;5109614;28;20042;-74
2021/06/17 08:51:35;;;;;;;7.78;4.15;;;;;;;;;;5108938;28;20111;-74
2021/06/17 08:54:01;;;;;;;5.25;3.70;;;;;;;;;;5109953;28;20008;-74
2021/06/17 08:56:27;;;;;;;5.85;4.25;;;;;;;;;;5110920;28;20365;-74
2021/06/17 08:58:57;;;;;;;7.15;4.22;;;;;;;;;;5110429;28;20413;-73
2021/06/17 09:01:26;;;;;;;7.28;4.60;;;;;;;;;;5106742;28;20027;-75
2021/06/17 09:03:54;;;;;;;6.93;4.07;;;;;;;;;;5106522;28;20027;-77
2021/06/17 09:06:23;;;;;;;5.28;4.38;;;;;;;;;;5110701;28;20143;-75
2021/06/17 09:09:02;;;;;;;6.78;5.22;;;;;;;;;;5110819;28;20016;-78
2021/06/17 09:11:29;;;;;;;4.28;3.47;;;;;;;;;;5110346;28;20016;-74
2021/06/17 09:14:14;;;;;;;5.55;4.05;;;;;;;;;;5109464;28;20107;-76
2021/06/17 09:16:40;;;;;;;5.22;3.92;;;;;;;;;;5111026;28;20027;-77
2021/06/17 09:19:06;;;;;;;5.57;4.00;;;;;;;;;;5111063;28;20484;-77
2021/06/17 09:21:41;;;;;;;7.88;4.43;;;;;;;;;;5111204;28;20165;-76
2021/06/17 09:24:08;;;;;;;20.30;14.32;;;;;;;;;;5111138;28;20043;-77
2021/06/17 09:26:34;;;;;;;12.77;4.30;;;;;;;;;;5110985;28;20023;-73
2021/06/17 09:29:04;;;;;;;8.85;4.57;;;;;;;;;;5111094;28;20019;-76
2021/06/17 09:31:32;;;;;;;9.68;4.28;;;;;;;;;;5111251;28;20016;-74
2021/06/17 09:33:59;;;;;;;5.80;3.70;;;;;;;;;;5109958;28;20571;-75
2021/06/17 09:36:32;;;;;;;9.13;3.85;;;;;;;;;;5111199;28;20028;-77
2021/06/17 09:39:11;;;;;;;8.65;5.30;;;;;;;;;;5106387;28;20016;-74
2021/06/17 09:41:42;;;;;;;4.90;3.50;;;;;;;;;;5107926;28;20384;-76
2021/06/17 09:44:28;;;;;;;5.20;4.00;;;;;;;;;;5107293;28;20035;-77
2021/06/17 09:47:25;;;;;;;3.50;3.20;;;;;;;;;;5105335;28;20480;-71
2021/06/17 09:49:52;;;;;;;11.05;3.95;;;;;;;;;;5101448;28;20092;-69
2021/06/17 09:52:18;;;;;;;8.02;3.80;;;;;;;;;;5111994;28;20032;-71
2021/06/17 09:54:44;;;;;;;5.57;3.45;;;;;;;;;;5114515;28;20027;-71
2021/06/17 09:57:12;;;;;;;8.00;3.53;;;;;;;;;;5113971;28;20020;-69
2021/06/17 09:59:45;;;;;;;5.53;3.97;;;;;;;;;;5114740;28;20047;-69
2021/06/17 10:02:17;;;;;;;7.57;4.00;;;;;;;;;;5108668;28;20080;-69
2021/06/17 10:04:43;;;;;;;4.68;3.65;;;;;;;;;;5114775;28;20035;-70
2021/06/17 10:07:09;;;;;;;3.95;3.65;;;;;;;;;;5108046;28;20035;-70
2021/06/17 10:09:36;;;;;;;4.18;3.60;;;;;;;;;;5114128;28;20024;-70
2021/06/17 10:12:02;;;;;;;4.72;3.95;;;;;;;;;;5114428;28;20030;-70
2021/06/17 10:14:28;;;;;;;6.10;3.70;;;;;;;;;;5114175;28;20027;-69
2021/06/17 10:16:54;;;;;;;11.27;4.20;;;;;;;;;;5114215;28;20031;-69
2021/06/17 10:19:21;;;;;;;5.75;4.03;;;;;;;;;;5114028;28;20028;-70
2021/06/17 10:21:48;;;;;;;5.07;3.70;;;;;;;;;;5113709;28;20016;-71
2021/06/17 10:24:16;;;;;;;7.05;4.00;;;;;;;;;;5114028;28;20410;-70
2021/06/17 10:26:44;;;;;;;6.18;3.92;;;;;;;;;;5111321;28;20224;-73
2021/06/17 10:29:23;;;;;;;6.65;3.65;;;;;;;;;;5112925;28;20031;-71
2021/06/17 10:31:50;;;;;;;8.02;3.55;;;;;;;;;;5110099;28;20019;-72
2021/06/17 10:34:31;;;;;;;5.95;3.85;;;;;;;;;;5113728;28;20023;-70
2021/06/17 10:37:16;;;;;;;10.88;4.03;;;;;;;;;;5108957;28;20024;-70
2021/06/17 10:39:53;;;;;;;5.65;4.00;;;;;;;;;;5110836;28;20039;-69
2021/06/17 10:42:25;;;;;;;6.88;3.70;;;;;;;;;;5113802;28;20098;-69
2021/06/17 10:44:51;;;;;;;4.25;3.75;;;;;;;;;;5113776;28;20055;-71
2021/06/17 10:47:35;;;;;;;3.75;3.45;;;;;;;;;;5113589;28;20097;-72
2021/06/17 10:50:02;;;;;;;8.85;3.72;;;;;;;;;;5113100;28;20075;-72
2021/06/17 10:52:29;;;;;;;7.40;4.30;;;;;;;;;;5113707;28;20019;-71
2021/06/17 10:54:56;;;;;;;5.40;3.30;;;;;;;;;;5108265;28;20124;-73
2021/06/17 10:57:41;;;;;;;6.82;4.53;;;;;;;;;;5112244;28;20031;-73
2021/06/17 11:00:22;;;;;;;7.35;4.22;;;;;;;;;;5112364;28;20036;-73
2021/06/17 11:02:55;;;;;;;9.80;4.47;;;;;;;;;;5112435;28;20054;-72
2021/06/17 11:05:38;;;;;;;8.77;3.88;;;;;;;;;;5112597;28;20589;-73
2021/06/17 11:08:23;;;;;;;4.85;3.63;;;;;;;;;;5108271;28;20020;-73
2021/06/17 11:10:50;;;;;;;5.80;4.75;;;;;;;;;;5113285;28;20023;-73
2021/06/17 11:13:26;;;;;;;5.72;3.72;;;;;;;;;;5111979;28;20092;-71
2021/06/17 11:15:52;;;;;;;6.63;4.30;;;;;;;;;;5106632;28;20429;-71
2021/06/17 11:18:37;;;;;;;3.97;3.47;;;;;;;;;;5113020;28;20038;-72
2021/06/17 11:21:03;;;;;;;6.20;4.30;;;;;;;;;;5106943;28;20024;-72
2021/06/17 11:23:30;;;;;;;4.43;4.03;;;;;;;;;;5112945;28;20032;-72
2021/06/17 11:26:00;;;;;;;7.60;3.90;;;;;;;;;;5108672;28;20038;-71
2021/06/17 11:28:46;;;;;;;8.52;4.15;;;;;;;;;;5106462;28;20030;-72
2021/06/17 11:31:12;;;;;;;10.93;4.03;;;;;;;;;;5112668;28;20456;-72
2021/06/17 11:33:43;;;;;;;6.90;3.67;;;;;;;;;;5112780;28;20024;-71
2021/06/17 11:36:12;;;;;;;4.10;3.70;;;;;;;;;;5113117;28;20031;-72
2021/06/17 11:38:38;;;;;;;4.53;4.05;;;;;;;;;;5112582;28;20166;-73
2021/06/17 11:41:12;;;;;;;7.00;4.40;;;;;;;;;;5112343;28;20480;-72
2021/06/17 11:43:38;;;;;;;4.18;3.33;;;;;;;;;;5112593;28;20027;-72
2021/06/17 11:46:04;;;;;;;11.07;6.72;;;;;;;;;;5111040;28;20040;-74
2021/06/17 11:48:32;;;;;;;6.00;4.65;;;;;;;;;;5112524;28;20046;-71
2021/06/17 11:51:02;;;;;;;8.38;4.07;;;;;;;;;;5112566;28;20030;-70
2021/06/17 11:53:31;;;;;;;9.48;5.13;;;;;;;;;;5112594;28;20108;-73
2021/06/17 11:55:59;;;;;;;5.97;4.68;;;;;;;;;;5111741;28;20448;-70
2021/06/17 11:58:28;;;;;;;3.97;3.58;;;;;;;;;;5111374;28;20071;-72
2021/06/17 12:00:55;;;;;;;4.90;3.88;;;;;;;;;;5111056;28;20030;-68
2021/06/17 12:03:26;;;;;;;7.07;4.50;;;;;;;;;;5112038;28;20027;-68
2021/06/17 12:06:04;;;;;;;7.85;4.40;;;;;;;;;;5112110;28;20032;-69
2021/06/17 12:08:32;;;;;;;6.88;4.60;;;;;;;;;;5112239;28;20030;-68
2021/06/17 12:11:01;;;;;;;9.60;4.25;;;;;;;;;;5111915;28;20096;-68
2021/06/17 12:13:30;;;;;;;5.97;3.97;;;;;;;;;;5112286;28;20020;-68
2021/06/17 12:15:58;;;;;;;7.22;4.07;;;;;;;;;;5111685;28;20039;-68
2021/06/17 12:18:24;;;;;;;5.65;3.88;;;;;;;;;;5112279;28;20470;-69
2021/06/17 12:20:51;;;;;;;7.93;4.63;;;;;;;;;;5112007;28;20127;-69
2021/06/17 12:23:22;;;;;;;6.80;5.07;;;;;;;;;;5111700;28;20031;-67
2021/06/17 12:25:57;;;;;;;11.13;5.40;;;;;;;;;;5111944;28;20020;-69
2021/06/17 12:28:23;;;;;;;6.25;5.03;;;;;;;;;;5112091;28;20088;-69
2021/06/17 12:30:50;;;;;;;10.65;5.88;;;;;;;;;;5111541;28;20115;-69
2021/06/17 12:33:20;;;;;;;4.60;4.03;;;;;;;;;;5110507;28;20096;-69
2021/06/17 12:35:50;;;;;;;8.63;5.22;;;;;;;;;;5111427;28;20093;-68
2021/06/17 12:38:22;;;;;;;7.05;5.10;;;;;;;;;;5111782;28;20334;-68
2021/06/17 12:40:48;;;;;;;10.07;4.93;;;;;;;;;;5104999;28;20023;-69
2021/06/17 12:43:17;;;;;;;6.97;4.57;;;;;;;;;;5111642;28;20031;-69
2021/06/17 12:45:47;;;;;;;8.73;4.97;;;;;;;;;;5105203;28;20054;-70
2021/06/17 12:48:45;;;;;;;10.25;5.30;;;;;;;;;;5111788;28;20028;-69
2021/06/17 12:54:00;;;;;;;14.02;5.50;;;;;;;;;;5111776;28;20356;-69
2021/06/17 12:56:26;;;;;;;6.85;5.15;;;;;;;;;;5111951;28;20099;-71
2021/06/17 12:58:53;;;;;;;9.80;5.85;;;;;;;;;;5111323;28;20031;-71
2021/06/17 13:01:23;;;;;;;5.78;5.13;;;;;;;;;;5111674;28;20374;-70
2021/06/17 13:03:50;;;;;;;;;;;;;;;;;;5105509;28;20016;-68
2021/06/17 13:06:33;;;;;;;6.85;5.50;;;;;;;;;;5111147;28;19915;-68
2021/06/17 13:08:58;;;;;;;6.07;5.45;;;;;;;;;;5105860;28;20027;-73
2021/06/17 13:11:28;;;;;;;10.60;8.40;;;;;;;;;;5111364;28;20023;-68
2021/06/17 13:14:05;;;;;;;11.65;7.85;;;;;;;;;;5110222;28;20051;-76
2021/06/17 13:16:32;;;;;;;6.20;5.50;;;;;;;;;;5110382;28;20020;-70
2021/06/17 13:18:58;;;;;;;7.10;5.43;;;;;;;;;;5104390;28;20031;-69
2021/06/17 13:21:24;;;;;;;10.93;5.88;;;;;;;;;;5111271;28;20490;-69
2021/06/17 13:23:52;;;;;;;6.35;5.35;;;;;;;;;;5110969;28;20032;-71
2021/06/17 13:26:19;;;;;;;8.77;5.20;;;;;;;;;;5110960;28;20077;-69
2021/06/17 13:28:45;;;;;;;11.32;5.85;;;;;;;;;;5114598;28;20047;-68
2021/06/17 13:31:24;;;;;;;9.57;5.78;;;;;;;;;;5113817;28;20120;-69
2021/06/17 13:33:51;;;;;;;11.68;5.60;;;;;;;;;;5115525;28;20383;-72
2021/06/17 13:36:17;;;;;;;6.35;5.50;;;;;;;;;;5114999;28;20034;-72
2021/06/17 13:38:43;;;;;;;11.15;5.47;;;;;;;;;;5114667;28;20039;-70
2021/06/17 13:41:09;;;;;;;7.60;5.57;;;;;;;;;;5113682;28;20499;-68
2021/06/17 13:43:35;;;;;;;13.60;5.70;;;;;;;;;;5115026;28;20027;-70
2021/06/17 13:46:01;;;;;;;17.40;5.40;;;;;;;;;;5114206;28;20411;-75
2021/06/17 13:48:34;;;;;;;6.97;5.30;;;;;;;;;;5115246;28;20016;-75
2021/06/17 13:51:02;;;;;;;7.43;5.60;;;;;;;;;;5114393;28;20460;-75
2021/06/17 13:53:28;;;;;;;7.30;5.38;;;;;;;;;;5111426;28;20452;-75
2021/06/17 13:55:54;;;;;;;10.63;7.30;;;;;;;;;;5110689;28;20023;-69
2021/06/17 13:58:20;;;;;;;13.38;10.20;;;;;;;;;;5108123;28;20083;-69
2021/06/17 14:00:46;;;;;;;6.72;5.10;;;;;;;;;;5114532;28;20094;-71
2021/06/17 14:03:12;;;;;;;7.80;4.07;;;;;;;;;;5114735;28;20341;-72
2021/06/17 14:05:43;;;;;;;9.73;4.65;;;;;;;;;;5114507;28;20024;-73
2021/06/17 14:08:10;;;;;;;7.00;5.15;;;;;;;;;;5114412;28;20024;-72
2021/06/17 14:10:36;;;;;;;9.52;5.72;;;;;;;;;;5113855;28;20601;-71
2021/06/17 14:13:05;;;;;;;11.98;5.95;;;;;;;;;;5114133;28;20036;-76
2021/06/17 14:15:32;;;;;;;7.07;5.05;;;;;;;;;;5114477;28;20040;-75
2021/06/17 14:18:00;;;;;;;10.75;5.00;;;;;;;;;;5114255;28;20024;-74
2021/06/17 14:20:26;;;;;;;8.48;4.70;;;;;;;;;;5114011;28;20034;-74
2021/06/17 14:22:53;;;;;;;11.27;5.43;;;;;;;;;;5114008;28;20031;-73
2021/06/17 14:25:20;;;;;;;7.25;5.05;;;;;;;;;;5114180;28;20034;-72
2021/06/17 14:27:46;;;;;;;9.70;4.85;;;;;;;;;;5113775;28;20061;-73
2021/06/17 14:30:13;;;;;;;10.10;5.07;;;;;;;;;;5112936;28;20035;-73
2021/06/17 14:32:42;;;;;;;9.35;5.38;;;;;;;;;;5114098;28;20028;-73
2021/06/17 14:35:10;;;;;;;5.70;4.45;;;;;;;;;;5114279;28;20220;-73
2021/06/17 14:37:37;;;;;;;6.82;4.93;;;;;;;;;;5113893;28;20028;-72
2021/06/17 14:40:07;;;;;;;10.23;4.88;;;;;;;;;;5113174;28;20024;-71
2021/06/17 14:42:33;;;;;;;6.53;4.85;;;;;;;;;;5113150;28;20400;-69
2021/06/17 14:44:59;;;;;;;7.50;5.22;;;;;;;;;;5113304;28;20376;-69
2021/06/17 14:47:25;;;;;;;6.75;5.00;;;;;;;;;;5112465;28;20035;-70
2021/06/17 14:49:51;;;;;;;12.35;4.88;;;;;;;;;;5113119;28;20020;-71
2021/06/17 14:52:17;;;;;;;8.80;5.28;;;;;;;;;;5105604;28;20322;-69
2021/06/17 14:54:44;;;;;;;7.18;4.70;;;;;;;;;;5113419;28;20103;-69
2021/06/17 14:57:10;;;;;;;8.85;4.90;;;;;;;;;;5113299;28;20030;-70
2021/06/17 14:59:36;;;;;;;8.55;5.50;;;;;;;;;;5112926;28;20091;-70
2021/06/17 15:02:02;;;;;;;8.45;5.72;;;;;;;;;;5113225;28;20098;-69
2021/06/17 15:04:31;;;;;;;11.27;6.10;;;;;;;;;;5113066;28;20019;-70